Time;durP1;ratioP1;P1;durP2;ratioP2;P2;SDS_P1;SDS_P2;PMS_P1;PMS_P2;Temp;Humidity;BMP_temperature;BMP_pressure;BME280_temperature;BME280_humidity;BME280_pressure;Samples;Min_cycle;Max_cycle;Signal;HPM_P1;HPM_P2
2021/09/30 00:01:23;;;;;;;2.08;1.00;;;19.70;99.90;;;;;;4937100;29;20032;-66
2021/09/30 00:03:48;;;;;;;2.70;1.40;;;19.70;99.90;;;;;;4936829;29;20094;-66
2021/09/30 00:06:14;;;;;;;3.15;1.10;;;19.70;99.90;;;;;;4936710;29;20120;-64
2021/09/30 00:08:40;;;;;;;3.40;1.38;;;19.70;99.90;;;;;;4936313;29;20027;-64
2021/09/30 00:11:10;;;;;;;2.63;1.20;;;19.70;99.90;;;;;;4936578;29;20044;-63
2021/09/30 00:32:41;;;;;;;2.40;1.00;;;19.50;99.90;;;;;;4935196;29;20038;-63
2021/09/30 00:45:45;;;;;;;3.03;1.10;;;19.40;99.90;;;;;;4930931;29;20030;-62
2021/09/30 00:49:20;;;;;;;2.15;1.00;;;19.40;99.90;;;;;;4934212;29;20444;-62
2021/09/30 00:51:28;;;;;;;1.17;0.63;;;19.40;99.90;;;;;;4929933;29;20035;-62
2021/09/30 01:20:20;;;;;;;1.48;0.57;;;19.20;99.90;;;;;;4934684;29;20046;-62
2021/09/30 03:00:21;;;;;;;1.02;0.43;;;18.70;99.90;;;;;;5066658;28;20542;-62
2021/09/30 03:02:50;;;;;;;1.05;0.55;;;18.70;99.90;;;;;;5062648;28;20100;-61
2021/09/30 03:05:19;;;;;;;1.10;0.57;;;18.70;99.90;;;;;;5053354;28;20116;-65
2021/09/30 03:07:45;;;;;;;1.30;0.55;;;18.70;99.90;;;;;;5051932;28;20060;-62
2021/09/30 03:10:12;;;;;;;1.00;0.57;;;18.70;99.90;;;;;;5053574;28;20461;-63
2021/09/30 03:12:38;;;;;;;1.10;0.43;;;18.70;99.90;;;;;;5061639;28;20033;-61
2021/09/30 03:17:49;;;;;;;2.00;0.60;;;18.60;99.90;;;;;;5052411;28;20025;-62
2021/09/30 03:23:04;;;;;;;1.67;0.70;;;18.60;99.90;;;;;;5053391;28;20029;-63
2021/09/30 03:25:32;;;;;;;1.65;0.60;;;18.60;99.90;;;;;;5051645;28;20029;-71
2021/09/30 03:27:58;;;;;;;1.35;0.40;;;18.60;99.90;;;;;;5053014;28;20036;-63
2021/09/30 03:30:26;;;;;;;1.55;0.63;;;18.60;99.90;;;;;;5052825;28;20037;-66
2021/09/30 03:32:52;;;;;;;0.93;0.50;;;18.60;99.90;;;;;;5052103;28;20436;-69
2021/09/30 03:35:19;;;;;;;0.90;0.50;;;18.60;99.90;;;;;;5052487;28;20025;-61
2021/09/30 03:37:45;;;;;;;1.75;0.70;;;18.60;99.90;;;;;;5052618;28;20033;-61
2021/09/30 03:40:11;;;;;;;1.00;0.60;;;18.60;99.90;;;;;;5052296;28;20021;-61
2021/09/30 03:42:36;;;;;;;1.58;0.55;;;18.60;99.90;;;;;;5052332;28;20152;-63
2021/09/30 03:45:04;;;;;;;1.80;0.63;;;18.50;99.90;;;;;;5051601;28;20025;-61
2021/09/30 03:47:29;;;;;;;1.52;0.68;;;18.50;99.90;;;;;;5051902;28;20037;-61
2021/09/30 03:49:55;;;;;;;1.17;0.60;;;18.50;99.90;;;;;;5052033;28;20025;-61
2021/09/30 04:00:27;;;;;;;2.05;0.80;;;18.50;99.90;;;;;;5052409;28;20082;-61
2021/09/30 04:02:53;;;;;;;1.10;0.60;;;18.40;99.90;;;;;;5052805;28;20025;-61
2021/09/30 04:05:18;;;;;;;1.83;0.60;;;18.40;99.90;;;;;;5051498;28;20174;-63
2021/09/30 04:07:44;;;;;;;1.48;0.50;;;18.40;99.90;;;;;;5052592;28;20021;-65
2021/09/30 04:10:10;;;;;;;1.58;0.57;;;18.40;99.90;;;;;;5052097;28;20052;-64
2021/09/30 04:12:35;;;;;;;0.90;0.60;;;18.40;99.90;;;;;;5050696;28;20027;-62
2021/09/30 04:15:01;;;;;;;1.05;0.50;;;18.40;99.90;;;;;;5051679;28;20116;-61
2021/09/30 04:17:26;;;;;;;2.53;0.73;;;18.40;99.90;;;;;;5052000;28;20025;-61
2021/09/30 04:19:52;;;;;;;1.75;0.63;;;18.40;99.90;;;;;;5052143;28;20067;-63
2021/09/30 04:22:18;;;;;;;1.60;0.70;;;18.40;99.90;;;;;;5051561;28;20025;-63
2021/09/30 04:24:45;;;;;;;1.20;0.50;;;18.30;99.90;;;;;;5051845;28;20036;-61
2021/09/30 04:27:10;;;;;;;1.55;0.70;;;18.30;99.90;;;;;;5051537;28;20032;-62
2021/09/30 04:29:36;;;;;;;1.58;0.70;;;18.30;99.90;;;;;;5051557;28;20464;-62
2021/09/30 04:32:02;;;;;;;0.88;0.50;;;18.30;99.90;;;;;;5051951;28;20100;-63
2021/09/30 04:34:28;;;;;;;1.33;0.70;;;18.30;99.90;;;;;;5051887;28;20028;-62
2021/09/30 04:36:54;;;;;;;1.50;0.68;;;18.30;99.90;;;;;;5051893;28;20481;-62
2021/09/30 04:39:20;;;;;;;1.30;0.60;;;18.30;99.90;;;;;;5050783;28;20182;-63
2021/09/30 04:41:46;;;;;;;1.20;0.60;;;18.30;99.90;;;;;;5051503;28;20112;-61
2021/09/30 04:44:12;;;;;;;2.30;0.60;;;18.30;99.90;;;;;;5051225;28;20392;-62
2021/09/30 04:46:38;;;;;;;1.02;0.47;;;18.30;99.90;;;;;;5051125;28;20048;-63
2021/09/30 04:49:04;;;;;;;2.05;0.80;;;18.20;99.90;;;;;;5051700;28;20063;-62
2021/09/30 04:51:30;;;;;;;1.25;0.55;;;18.20;99.90;;;;;;5051123;28;20028;-65
2021/09/30 04:53:55;;;;;;;0.93;0.50;;;18.20;99.90;;;;;;5051583;28;20053;-62
2021/09/30 04:56:21;;;;;;;1.23;0.70;;;18.20;99.90;;;;;;5051057;28;20024;-66
2021/09/30 04:58:47;;;;;;;1.48;0.60;;;18.20;99.90;;;;;;5051400;28;20534;-62
2021/09/30 05:01:13;;;;;;;1.10;0.60;;;18.20;99.90;;;;;;5051334;28;20476;-62
2021/09/30 05:03:39;;;;;;;2.10;0.60;;;18.20;99.90;;;;;;5051333;28;20039;-62
2021/09/30 05:06:04;;;;;;;2.00;0.75;;;18.20;99.90;;;;;;5051090;28;20470;-62
2021/09/30 05:08:33;;;;;;;1.40;0.60;;;18.20;99.90;;;;;;5051083;28;20016;-66
2021/09/30 05:11:01;;;;;;;1.38;0.63;;;18.10;99.90;;;;;;5051441;28;20485;-63
2021/09/30 05:13:36;;;;;;;1.42;0.70;;;18.10;99.90;;;;;;5051022;28;20428;-63
2021/09/30 05:16:03;;;;;;;2.05;0.80;;;18.10;99.90;;;;;;5048728;28;20040;-62
2021/09/30 05:18:29;;;;;;;1.40;0.80;;;18.10;99.90;;;;;;5050174;28;20465;-61
2021/09/30 05:20:55;;;;;;;1.65;0.68;;;18.10;99.90;;;;;;5050986;28;20043;-63
2021/09/30 05:23:22;;;;;;;1.77;0.55;;;18.10;99.90;;;;;;5050515;28;20033;-62
2021/09/30 05:25:47;;;;;;;1.33;0.65;;;18.10;99.90;;;;;;5067689;28;20404;-63
2021/09/30 05:28:13;;;;;;;1.55;0.70;;;18.10;99.90;;;;;;5069309;28;20025;-63
2021/09/30 05:30:39;;;;;;;12.52;0.70;;;18.10;99.90;;;;;;5070621;28;20028;-65
2021/09/30 05:33:04;;;;;;;1.20;0.65;;;18.00;99.90;;;;;;5069563;28;20472;-67
2021/09/30 05:35:30;;;;;;;1.15;0.50;;;18.00;99.90;;;;;;5071119;28;20029;-62
2021/09/30 05:37:56;;;;;;;1.73;0.80;;;18.10;99.90;;;;;;5071308;28;20385;-63
2021/09/30 05:40:24;;;;;;;1.15;0.70;;;18.10;99.90;;;;;;5069533;28;20020;-67
2021/09/30 05:42:50;;;;;;;1.90;0.60;;;18.10;99.90;;;;;;5071078;28;20024;-68
2021/09/30 05:45:17;;;;;;;1.35;0.60;;;18.10;99.90;;;;;;5071064;28;20169;-68
2021/09/30 05:47:44;;;;;;;1.75;0.73;;;18.10;99.90;;;;;;5070834;28;20024;-65
2021/09/30 05:50:10;;;;;;;3.28;1.20;;;18.00;99.90;;;;;;5070934;28;20361;-67
2021/09/30 05:52:36;;;;;;;3.33;1.23;;;17.90;99.90;;;;;;5070645;28;20021;-64
2021/09/30 05:55:03;;;;;;;6.03;1.33;;;17.80;99.90;;;;;;5070813;28;20092;-63
2021/09/30 05:57:30;;;;;;;3.17;1.40;;;17.70;99.80;;;;;;5070116;28;20532;-64
2021/09/30 06:00:03;;;;;;;3.47;1.40;;;17.70;99.90;;;;;;5070967;28;20376;-61
2021/09/30 06:13:10;;;;;;;6.20;1.05;;;17.20;99.00;;;;;;5073775;28;20116;-61
2021/09/30 06:15:39;;;;;;;5.65;1.15;;;17.20;99.90;;;;;;5074509;28;20032;-62
2021/09/30 06:18:07;;;;;;;1.85;0.73;;;17.30;99.90;;;;;;5074689;28;20096;-61
2021/09/30 06:20:33;;;;;;;3.40;1.02;;;17.30;99.90;;;;;;5074299;28;20078;-62
2021/09/30 06:22:59;;;;;;;2.08;0.80;;;17.30;99.90;;;;;;5074687;28;20016;-61
2021/09/30 06:25:25;;;;;;;4.07;0.88;;;17.30;99.90;;;;;;5073924;28;20089;-61
2021/09/30 06:27:50;;;;;;;3.35;1.10;;;17.30;99.90;;;;;;5074274;28;20496;-61
2021/09/30 06:30:16;;;;;;;4.05;1.30;;;17.30;99.90;;;;;;5074364;28;20454;-61
2021/09/30 06:32:42;;;;;;;3.92;1.00;;;17.30;99.90;;;;;;5074307;28;20114;-62
2021/09/30 06:35:08;;;;;;;2.60;0.90;;;17.30;99.90;;;;;;5074172;28;20468;-62
2021/09/30 06:37:34;;;;;;;4.47;1.10;;;17.30;99.90;;;;;;5072551;28;20028;-61
2021/09/30 06:40:00;;;;;;;4.70;1.00;;;17.20;99.90;;;;;;5074423;28;20017;-63
2021/09/30 06:42:25;;;;;;;2.75;0.93;;;17.20;99.90;;;;;;5073732;28;20078;-61
2021/09/30 06:44:51;;;;;;;2.15;0.85;;;17.20;99.90;;;;;;5073832;28;20025;-62
2021/09/30 06:47:17;;;;;;;2.65;1.00;;;17.20;99.90;;;;;;5073967;28;20028;-62
2021/09/30 06:49:43;;;;;;;2.20;0.65;;;17.20;99.90;;;;;;5073951;28;20517;-62
2021/09/30 06:52:08;;;;;;;3.75;0.98;;;17.20;99.90;;;;;;5073874;28;20059;-61
2021/09/30 06:54:34;;;;;;;3.90;1.23;;;17.20;99.90;;;;;;5073627;28;20079;-61
2021/09/30 06:57:00;;;;;;;2.58;0.90;;;17.20;99.90;;;;;;5074623;28;20499;-61
2021/09/30 06:59:33;;;;;;;1.77;1.00;;;17.20;99.90;;;;;;5073465;28;20048;-64
2021/09/30 07:02:03;;;;;;;3.63;0.90;;;17.20;99.90;;;;;;5074045;28;20029;-63
2021/09/30 07:04:31;;;;;;;2.08;0.80;;;17.20;99.90;;;;;;5073643;28;20051;-65
2021/09/30 07:06:57;;;;;;;3.13;1.00;;;17.20;99.90;;;;;;5073592;28;20472;-67
2021/09/30 07:09:23;;;;;;;2.22;1.10;;;17.20;99.90;;;;;;5073223;28;20055;-64
2021/09/30 07:11:48;;;;;;;3.92;0.98;;;17.20;99.90;;;;;;5073435;28;20028;-64
2021/09/30 07:14:14;;;;;;;1.98;0.82;;;17.20;99.90;;;;;;5073513;28;20430;-68
2021/09/30 07:16:40;;;;;;;2.13;0.90;;;17.20;99.90;;;;;;5073137;28;20035;-68
2021/09/30 07:19:07;;;;;;;1.88;0.90;;;17.20;99.90;;;;;;5073492;28;20107;-67
2021/09/30 07:21:33;;;;;;;3.40;0.90;;;17.20;99.90;;;;;;5073323;28;20384;-61
2021/09/30 07:23:59;;;;;;;2.97;0.90;;;17.20;99.90;;;;;;5073153;28;20491;-62
2021/09/30 07:26:25;;;;;;;3.05;0.98;;;17.20;99.90;;;;;;5072730;28;20560;-67
2021/09/30 07:28:51;;;;;;;2.25;0.70;;;17.20;99.90;;;;;;5073109;28;20021;-65
2021/09/30 07:31:17;;;;;;;2.75;0.80;;;17.20;99.90;;;;;;5073022;28;20074;-65
2021/09/30 07:33:43;;;;;;;3.22;0.93;;;17.20;99.90;;;;;;5073129;28;20021;-62
2021/09/30 07:36:11;;;;;;;2.92;0.75;;;17.20;99.90;;;;;;5073086;28;20035;-64
2021/09/30 07:38:37;;;;;;;1.95;0.93;;;17.20;99.90;;;;;;5073029;28;20025;-63
2021/09/30 07:41:03;;;;;;;1.92;0.80;;;17.20;99.90;;;;;;5073214;28;20035;-63
2021/09/30 07:43:28;;;;;;;1.95;0.85;;;17.20;99.90;;;;;;5072599;28;20092;-65
2021/09/30 07:45:54;;;;;;;1.10;0.68;;;17.20;99.90;;;;;;5072850;28;20075;-64
2021/09/30 07:48:21;;;;;;;2.03;0.63;;;17.20;99.90;;;;;;5072663;28;20095;-67
2021/09/30 07:50:47;;;;;;;2.28;0.82;;;17.20;99.90;;;;;;5073047;28;20028;-65
2021/09/30 07:53:14;;;;;;;2.00;0.80;;;17.20;99.90;;;;;;5072729;28;20039;-68
2021/09/30 07:55:41;;;;;;;2.78;0.88;;;17.20;99.90;;;;;;5071426;28;20361;-71
2021/09/30 07:58:09;;;;;;;1.58;0.70;;;17.20;99.90;;;;;;5071742;28;20029;-65
2021/09/30 08:00:36;;;;;;;2.97;0.80;;;17.20;99.90;;;;;;5072789;28;20029;-66
2021/09/30 08:03:03;;;;;;;3.13;0.70;;;17.20;99.90;;;;;;5072921;28;20563;-68
2021/09/30 08:05:29;;;;;;;2.25;0.90;;;17.20;99.90;;;;;;5072082;28;20056;-65
2021/09/30 08:07:55;;;;;;;2.38;0.88;;;17.20;99.90;;;;;;5072389;28;20064;-66
2021/09/30 08:10:21;;;;;;;3.17;0.80;;;17.20;99.90;;;;;;5072127;28;20536;-63
2021/09/30 08:12:46;;;;;;;3.28;0.90;;;17.20;99.90;;;;;;5072524;28;20020;-71
2021/09/30 08:15:12;;;;;;;3.03;1.02;;;17.20;99.90;;;;;;5072272;28;20027;-63
2021/09/30 08:17:38;;;;;;;1.58;0.73;;;17.20;99.90;;;;;;5070666;28;20396;-67
2021/09/30 08:20:05;;;;;;;2.80;1.00;;;17.20;99.90;;;;;;5072407;28;20035;-70
2021/09/30 08:22:30;;;;;;;2.38;0.80;;;17.20;99.90;;;;;;5071938;28;20472;-61
2021/09/30 08:24:56;;;;;;;1.85;0.90;;;17.20;99.90;;;;;;5071895;28;20082;-62
2021/09/30 08:27:22;;;;;;;1.38;0.68;;;17.20;99.90;;;;;;5071851;28;20029;-62
2021/09/30 08:29:47;;;;;;;3.05;0.80;;;17.20;99.90;;;;;;5072090;28;20020;-62
2021/09/30 08:32:13;;;;;;;2.65;0.80;;;17.20;99.90;;;;;;5072022;28;20024;-63
2021/09/30 08:34:39;;;;;;;1.63;0.70;;;17.20;99.90;;;;;;5071238;28;20049;-62
2021/09/30 08:37:05;;;;;;;2.45;0.73;;;17.20;99.90;;;;;;5072292;28;20058;-63
2021/09/30 08:39:30;;;;;;;1.05;0.57;;;17.20;99.90;;;;;;5071623;28;20086;-61
2021/09/30 08:41:56;;;;;;;1.40;0.60;;;17.20;99.90;;;;;;5071884;28;20025;-62
2021/09/30 08:44:23;;;;;;;2.00;0.68;;;17.30;99.90;;;;;;5071548;28;20430;-63
2021/09/30 08:46:48;;;;;;;1.98;0.55;;;17.20;99.90;;;;;;5071732;28;20079;-66
2021/09/30 08:49:14;;;;;;;2.50;0.80;;;17.30;99.90;;;;;;5072078;28;20044;-62
2021/09/30 08:51:40;;;;;;;1.48;0.70;;;17.30;99.90;;;;;;5071439;28;20024;-61
2021/09/30 08:54:05;;;;;;;2.47;0.80;;;17.30;99.90;;;;;;5071991;28;20031;-64
2021/09/30 08:56:33;;;;;;;1.90;0.77;;;17.30;99.90;;;;;;5064216;28;20032;-65
2021/09/30 08:59:19;;;;;;;2.50;0.93;;;17.30;99.90;;;;;;5050845;28;20119;-61
2021/09/30 09:02:10;;;;;;;1.83;0.73;;;17.30;99.90;;;;;;5047698;28;20033;-61
2021/09/30 09:04:36;;;;;;;1.77;0.75;;;17.30;99.90;;;;;;5050437;28;20020;-64
2021/09/30 09:07:07;;;;;;;1.25;0.70;;;17.30;99.90;;;;;;5048333;28;20032;-61
2021/09/30 09:09:33;;;;;;;0.82;0.68;;;17.30;99.90;;;;;;5050760;28;20017;-61
2021/09/30 09:12:08;;;;;;;1.90;0.82;;;17.30;99.90;;;;;;5050850;28;20089;-62
2021/09/30 09:14:38;;;;;;;2.17;0.68;;;17.30;99.90;;;;;;5049486;28;20013;-62
2021/09/30 09:17:06;;;;;;;2.42;0.93;;;17.30;99.90;;;;;;5047315;28;20021;-64
2021/09/30 09:19:35;;;;;;;1.95;0.68;;;17.40;99.90;;;;;;5050601;28;20071;-61
2021/09/30 09:22:09;;;;;;;1.33;0.70;;;17.30;99.90;;;;;;5050780;28;20084;-63
2021/09/30 09:24:34;;;;;;;;;;;17.40;99.90;;;;;;5051324;28;20414;-62
2021/09/30 09:27:01;;;;;;;2.38;0.75;;;17.30;99.90;;;;;;5050727;28;19916;-60
2021/09/30 09:29:31;;;;;;;1.48;0.52;;;17.30;99.90;;;;;;5050371;28;20347;-62
2021/09/30 09:32:01;;;;;;;1.90;0.88;;;17.40;99.90;;;;;;5050949;28;20029;-62
2021/09/30 09:34:39;;;;;;;1.48;0.63;;;17.40;99.90;;;;;;5050557;28;20021;-62
2021/09/30 09:37:40;;;;;;;1.40;0.80;;;17.40;99.90;;;;;;5048864;28;20025;-62
2021/09/30 09:40:17;;;;;;;1.63;0.70;;;17.40;99.90;;;;;;5047302;28;20024;-62
2021/09/30 09:42:43;;;;;;;2.35;0.90;;;17.40;99.90;;;;;;5048538;28;20025;-61
2021/09/30 09:45:13;;;;;;;1.17;0.80;;;17.40;99.90;;;;;;5050837;28;20381;-61
2021/09/30 09:47:41;;;;;;;1.83;0.90;;;17.40;99.90;;;;;;5053017;28;20494;-61
2021/09/30 09:50:25;;;;;;;1.40;0.60;;;17.40;99.90;;;;;;5054049;28;20028;-62
2021/09/30 09:53:02;;;;;;;1.75;0.60;;;17.40;99.90;;;;;;5055191;28;20251;-62
2021/09/30 09:55:34;;;;;;;3.15;0.82;;;17.40;99.90;;;;;;5054940;28;20372;-61
2021/09/30 09:58:11;;;;;;;1.27;0.50;;;17.50;99.90;;;;;;5054977;28;20029;-62
2021/09/30 10:00:51;;;;;;;1.10;0.60;;;17.40;99.90;;;;;;5054938;28;20025;-68
2021/09/30 10:03:17;;;;;;;2.47;0.88;;;17.50;99.90;;;;;;5054660;28;20036;-63
2021/09/30 10:05:44;;;;;;;1.90;0.73;;;17.40;99.90;;;;;;5054820;28;20032;-64
2021/09/30 10:08:10;;;;;;;1.00;0.55;;;17.40;99.90;;;;;;5055132;28;20025;-62
2021/09/30 10:10:37;;;;;;;1.50;0.60;;;17.50;99.90;;;;;;5054864;28;20032;-69
2021/09/30 10:13:04;;;;;;;2.38;0.73;;;17.50;99.90;;;;;;5054614;28;20028;-64
2021/09/30 10:15:31;;;;;;;2.22;0.80;;;17.50;99.90;;;;;;5054415;28;20029;-69
2021/09/30 10:17:57;;;;;;;1.65;0.70;;;17.50;99.90;;;;;;5054613;28;20017;-69
2021/09/30 10:20:22;;;;;;;1.45;0.77;;;17.50;99.90;;;;;;5054332;28;20442;-69
2021/09/30 10:22:53;;;;;;;1.75;0.77;;;17.50;99.90;;;;;;5054655;28;20021;-71
2021/09/30 10:25:18;;;;;;;2.15;0.85;;;17.50;99.90;;;;;;5054101;28;20033;-70
2021/09/30 10:27:53;;;;;;;1.30;0.50;;;17.50;99.90;;;;;;5054423;28;20029;-67
2021/09/30 10:30:34;;;;;;;1.27;0.60;;;17.50;99.90;;;;;;5054198;28;20021;-70
2021/09/30 10:33:01;;;;;;;2.45;0.85;;;17.50;99.90;;;;;;5054286;28;20027;-65
2021/09/30 10:35:35;;;;;;;1.65;0.75;;;17.60;99.90;;;;;;5053933;28;20021;-68
2021/09/30 10:38:19;;;;;;;;;;;17.60;99.90;;;;;;5054540;28;20506;-64
2021/09/30 10:41:13;;;;;;;1.42;0.55;;;17.60;99.90;;;;;;5054383;28;19905;-66
2021/09/30 10:43:46;;;;;;;2.47;0.70;;;17.60;99.90;;;;;;5053975;28;20033;-69
2021/09/30 10:46:26;;;;;;;1.40;0.73;;;17.60;99.90;;;;;;5054375;28;20037;-69
2021/09/30 10:48:55;;;;;;;1.77;0.88;;;17.60;99.90;;;;;;5054115;28;20086;-62
2021/09/30 10:51:22;;;;;;;1.80;0.63;;;17.60;99.90;;;;;;5053763;28;20385;-62
2021/09/30 10:53:48;;;;;;;2.65;0.75;;;17.60;99.90;;;;;;5054062;28;20024;-62
2021/09/30 10:56:38;;;;;;;1.95;0.75;;;17.60;99.90;;;;;;5054003;28;20029;-62
2021/09/30 10:59:07;;;;;;;2.92;0.80;;;17.60;99.90;;;;;;5053365;28;20020;-62
2021/09/30 11:01:34;;;;;;;1.67;0.85;;;17.60;99.90;;;;;;5053648;28;20067;-62
2021/09/30 11:04:04;;;;;;;1.88;0.63;;;17.70;99.90;;;;;;5053801;28;20449;-64
2021/09/30 11:06:30;;;;;;;2.38;0.80;;;17.70;99.90;;;;;;5053430;28;20080;-62
2021/09/30 11:09:17;;;;;;;1.67;0.70;;;17.60;99.90;;;;;;5053715;28;20044;-62
2021/09/30 11:12:06;;;;;;;2.78;0.85;;;17.60;99.90;;;;;;5053949;28;20063;-63
2021/09/30 11:14:32;;;;;;;1.63;0.80;;;17.70;99.90;;;;;;5052905;28;20037;-62
2021/09/30 11:16:58;;;;;;;1.92;0.70;;;17.70;99.90;;;;;;5053559;28;20495;-63
2021/09/30 11:19:40;;;;;;;2.15;0.90;;;17.70;99.90;;;;;;5053275;28;20025;-63
2021/09/30 11:22:08;;;;;;;2.22;0.70;;;17.70;99.90;;;;;;5053755;28;20040;-63
2021/09/30 11:24:49;;;;;;;1.77;0.70;;;17.70;99.90;;;;;;5053199;28;20025;-64
2021/09/30 11:27:16;;;;;;;1.42;0.70;;;17.70;99.90;;;;;;5053385;28;20036;-69
2021/09/30 11:29:43;;;;;;;1.83;0.65;;;17.70;99.90;;;;;;5053616;28;20415;-66
2021/09/30 11:32:08;;;;;;;2.70;0.77;;;17.70;99.90;;;;;;5053606;28;20473;-64
2021/09/30 11:34:41;;;;;;;1.73;0.60;;;17.70;99.90;;;;;;5052912;28;20090;-63
2021/09/30 11:37:18;;;;;;;1.77;0.75;;;17.80;99.90;;;;;;5053181;28;20017;-68
2021/09/30 11:39:48;;;;;;;2.13;0.60;;;17.80;99.90;;;;;;5053371;28;20358;-63
2021/09/30 11:42:15;;;;;;;3.75;0.98;;;17.70;99.90;;;;;;5051981;28;20025;-63
2021/09/30 11:44:53;;;;;;;1.63;0.63;;;17.80;99.90;;;;;;5053013;28;20362;-64
2021/09/30 11:47:20;;;;;;;1.25;0.63;;;17.80;99.90;;;;;;5052679;28;20029;-64
2021/09/30 11:49:46;;;;;;;1.48;0.70;;;17.80;99.90;;;;;;5052969;28;20013;-67
2021/09/30 11:52:13;;;;;;;1.35;0.60;;;17.80;99.90;;;;;;5053291;28;20575;-66
2021/09/30 11:54:39;;;;;;;1.85;0.70;;;17.80;99.90;;;;;;5052626;28;20044;-64
2021/09/30 11:57:04;;;;;;;1.83;0.65;;;17.80;99.90;;;;;;5052768;28;20485;-64
2021/09/30 11:59:32;;;;;;;3.63;0.82;;;17.90;99.90;;;;;;5052373;28;20029;-63
2021/09/30 12:02:05;;;;;;;2.05;0.70;;;17.90;99.90;;;;;;5052862;28;20032;-63
2021/09/30 12:04:41;;;;;;;1.80;0.60;;;17.90;99.90;;;;;;5052361;28;20017;-62
2021/09/30 12:07:18;;;;;;;1.35;0.70;;;17.90;99.90;;;;;;5052660;28;20033;-62
2021/09/30 12:09:44;;;;;;;2.45;0.85;;;17.90;99.90;;;;;;5051818;28;20032;-64
2021/09/30 12:12:10;;;;;;;3.15;0.93;;;17.90;99.90;;;;;;5052825;28;20029;-65
2021/09/30 12:14:44;;;;;;;2.22;0.57;;;17.90;99.90;;;;;;5052203;28;20027;-64
2021/09/30 12:17:14;;;;;;;1.30;0.50;;;17.90;99.90;;;;;;5052708;28;20021;-64
2021/09/30 12:19:45;;;;;;;2.47;0.73;;;17.90;99.90;;;;;;5052366;28;20048;-68
2021/09/30 12:22:18;;;;;;;1.35;0.55;;;17.90;99.90;;;;;;5052529;28;20025;-62
2021/09/30 12:24:50;;;;;;;1.85;0.60;;;17.90;99.90;;;;;;5052452;28;20031;-63
2021/09/30 12:27:17;;;;;;;1.38;0.68;;;17.90;99.90;;;;;;5052383;28;20116;-64
2021/09/30 12:29:50;;;;;;;2.20;0.68;;;17.90;99.90;;;;;;5052534;28;20028;-63
2021/09/30 12:32:19;;;;;;;1.42;0.52;;;17.90;99.90;;;;;;5052242;28;20072;-68
2021/09/30 12:34:57;;;;;;;2.17;0.65;;;17.90;99.90;;;;;;5052575;28;20104;-70
2021/09/30 12:37:33;;;;;;;2.28;0.68;;;18.00;99.90;;;;;;5052027;28;20456;-69
2021/09/30 12:40:05;;;;;;;1.63;0.50;;;18.00;99.90;;;;;;5052089;28;20021;-65
2021/09/30 12:42:32;;;;;;;2.35;0.60;;;17.90;99.90;;;;;;5051794;28;20603;-63
2021/09/30 12:44:58;;;;;;;1.83;0.47;;;18.00;99.90;;;;;;5051805;28;20032;-65
2021/09/30 12:47:39;;;;;;;2.60;0.60;;;18.00;99.90;;;;;;5051735;28;20033;-63
2021/09/30 12:50:09;;;;;;;1.08;0.60;;;18.00;99.90;;;;;;5051921;28;20028;-63
2021/09/30 12:52:36;;;;;;;2.80;0.90;;;18.00;99.90;;;;;;5051447;28;20022;-63
2021/09/30 12:55:24;;;;;;;1.88;0.60;;;18.00;99.90;;;;;;5051800;28;20561;-63
2021/09/30 12:57:50;;;;;;;1.20;0.60;;;18.00;99.90;;;;;;5051523;28;20041;-63
2021/09/30 13:00:18;;;;;;;2.83;0.60;;;18.00;99.90;;;;;;5051747;28;20029;-63
2021/09/30 13:02:46;;;;;;;3.35;0.77;;;18.00;99.90;;;;;;5051906;28;20031;-63
2021/09/30 13:05:13;;;;;;;1.67;0.60;;;18.00;99.90;;;;;;5051832;28;20024;-64
2021/09/30 13:07:52;;;;;;;1.58;0.65;;;18.00;99.90;;;;;;5051354;28;20108;-67
2021/09/30 13:10:26;;;;;;;1.25;0.63;;;18.00;99.90;;;;;;5051224;28;20083;-69
2021/09/30 13:13:07;;;;;;;1.38;0.57;;;18.00;99.90;;;;;;5051167;28;20529;-72
2021/09/30 13:15:44;;;;;;;2.03;0.52;;;18.10;99.90;;;;;;5051206;28;20481;-72
2021/09/30 13:18:12;;;;;;;1.88;0.52;;;18.10;99.90;;;;;;5051559;28;20112;-72
2021/09/30 13:20:39;;;;;;;1.42;0.57;;;18.10;99.90;;;;;;5050060;28;20032;-66
2021/09/30 13:23:06;;;;;;;1.85;0.70;;;18.00;99.90;;;;;;5051626;28;20362;-66
2021/09/30 13:25:31;;;;;;;2.17;0.60;;;18.10;99.90;;;;;;5050909;28;20507;-70
2021/09/30 13:27:58;;;;;;;1.73;0.65;;;18.10;99.90;;;;;;5051400;28;20021;-64
2021/09/30 13:30:33;;;;;;;2.42;0.70;;;18.10;99.90;;;;;;5051128;28;20108;-63
2021/09/30 13:33:01;;;;;;;1.95;0.70;;;18.10;99.90;;;;;;5051305;28;20017;-64
2021/09/30 13:35:29;;;;;;;1.35;0.60;;;18.10;99.90;;;;;;5049910;28;20017;-63
2021/09/30 13:37:55;;;;;;;1.98;0.70;;;18.10;99.90;;;;;;5051259;28;20108;-63
2021/09/30 13:40:22;;;;;;;2.88;0.80;;;18.10;99.90;;;;;;5051062;28;20028;-64
2021/09/30 13:42:48;;;;;;;2.28;0.70;;;18.10;99.90;;;;;;5051167;28;20469;-69
2021/09/30 13:45:16;;;;;;;1.25;0.57;;;18.10;99.90;;;;;;5051498;28;20032;-65
2021/09/30 13:47:42;;;;;;;1.63;0.52;;;18.10;99.90;;;;;;5051263;28;20481;-69
2021/09/30 13:50:14;;;;;;;1.10;0.40;;;18.20;99.90;;;;;;5051163;28;20017;-64
2021/09/30 13:52:41;;;;;;;1.25;0.55;;;18.20;99.90;;;;;;5049676;28;20038;-64
2021/09/30 13:55:07;;;;;;;1.25;0.55;;;18.10;99.90;;;;;;5051151;28;20518;-66
2021/09/30 13:57:34;;;;;;;1.45;0.50;;;18.20;99.90;;;;;;5050838;28;20101;-67
2021/09/30 14:00:01;;;;;;;2.35;0.55;;;18.10;99.90;;;;;;5050993;28;20048;-63
2021/09/30 14:02:27;;;;;;;2.58;0.50;;;18.20;99.90;;;;;;5050819;28;20432;-64
2021/09/30 14:04:53;;;;;;;1.45;0.50;;;18.20;99.90;;;;;;5050946;28;20015;-64
2021/09/30 14:07:18;;;;;;;1.73;0.55;;;18.10;99.90;;;;;;5050694;28;20036;-63
2021/09/30 14:09:44;;;;;;;1.58;0.52;;;18.20;99.90;;;;;;5051247;28;20017;-64
2021/09/30 14:12:10;;;;;;;2.25;0.60;;;18.20;99.90;;;;;;5050832;28;20098;-65
2021/09/30 14:14:36;;;;;;;1.95;0.55;;;18.20;99.90;;;;;;5050555;28;20416;-63
2021/09/30 14:17:02;;;;;;;1.67;0.57;;;18.20;99.90;;;;;;5050874;28;20083;-63
2021/09/30 14:19:28;;;;;;;2.05;0.60;;;18.20;99.90;;;;;;5050599;28;20371;-65
2021/09/30 14:21:56;;;;;;;1.92;0.52;;;18.20;99.90;;;;;;5050778;28;20116;-63
2021/09/30 14:24:22;;;;;;;0.80;0.40;;;18.20;99.90;;;;;;5050499;28;20384;-63
2021/09/30 14:26:49;;;;;;;1.70;0.80;;;18.20;99.90;;;;;;5050231;28;20119;-63
2021/09/30 14:29:15;;;;;;;1.63;0.60;;;18.30;99.90;;;;;;5049500;28;20531;-63
2021/09/30 14:31:41;;;;;;;2.58;0.73;;;18.20;99.90;;;;;;5049452;28;20052;-61
2021/09/30 14:34:06;;;;;;;1.50;0.70;;;18.30;99.90;;;;;;5053568;28;20021;-63
2021/09/30 14:36:33;;;;;;;1.67;0.55;;;18.30;99.90;;;;;;5054056;28;20037;-64
2021/09/30 14:38:59;;;;;;;2.00;0.60;;;18.20;99.90;;;;;;5054312;28;20100;-61
2021/09/30 14:41:25;;;;;;;1.08;0.45;;;18.20;99.90;;;;;;5054004;28;20053;-61
2021/09/30 14:43:50;;;;;;;1.67;0.60;;;18.30;99.90;;;;;;5054105;28;20071;-63
2021/09/30 14:46:18;;;;;;;1.65;0.60;;;18.30;99.90;;;;;;5054397;28;20033;-62
2021/09/30 14:48:44;;;;;;;1.88;0.45;;;18.30;99.90;;;;;;5054635;28;20163;-63
2021/09/30 14:51:11;;;;;;;2.05;0.63;;;18.30;99.90;;;;;;5054171;28;20032;-62
2021/09/30 14:53:38;;;;;;;2.83;0.90;;;18.30;99.90;;;;;;5053720;28;20467;-63
2021/09/30 14:56:05;;;;;;;1.48;0.70;;;18.30;99.90;;;;;;5053980;28;20025;-63
2021/09/30 14:58:32;;;;;;;2.35;0.60;;;18.30;99.90;;;;;;5053602;28;20025;-63
2021/09/30 15:00:58;;;;;;;2.40;0.70;;;18.30;99.90;;;;;;5052604;28;20021;-63
2021/09/30 15:03:23;;;;;;;2.17;0.52;;;18.30;99.90;;;;;;5051802;28;20108;-61
2021/09/30 15:05:49;;;;;;;2.72;0.60;;;18.30;99.90;;;;;;5053857;28;20037;-64
2021/09/30 15:08:15;;;;;;;2.38;0.50;;;18.30;99.90;;;;;;5053448;28;20056;-63
2021/09/30 15:10:40;;;;;;;1.08;0.50;;;18.30;99.90;;;;;;5053483;28;20025;-63
2021/09/30 15:13:07;;;;;;;1.30;0.40;;;18.30;99.90;;;;;;5053704;28;20099;-63
2021/09/30 15:15:33;;;;;;;1.48;0.45;;;18.30;99.90;;;;;;5053331;28;20017;-64
2021/09/30 15:18:02;;;;;;;1.63;0.55;;;18.30;99.90;;;;;;5052406;28;20395;-65
2021/09/30 15:23:10;;;;;;;1.77;0.52;;;18.30;99.90;;;;;;5049713;28;20033;-62
2021/09/30 15:25:38;;;;;;;1.35;0.40;;;18.30;99.90;;;;;;5051397;28;20554;-63
2021/09/30 15:28:05;;;;;;;3.60;0.50;;;18.30;99.90;;;;;;5051979;28;20060;-66
2021/09/30 15:30:32;;;;;;;2.53;0.65;;;18.30;99.90;;;;;;5052007;28;20021;-63
2021/09/30 15:32:58;;;;;;;1.30;0.40;;;18.30;99.90;;;;;;5052757;28;20096;-63
2021/09/30 15:35:24;;;;;;;1.30;0.70;;;18.30;99.90;;;;;;5052704;28;20421;-63
2021/09/30 15:37:49;;;;;;;1.77;0.40;;;18.30;99.90;;;;;;5053259;28;20052;-64
2021/09/30 15:40:16;;;;;;;1.42;0.60;;;18.30;99.90;;;;;;5053373;28;20497;-63
2021/09/30 15:42:46;;;;;;;0.77;0.43;;;18.40;99.90;;;;;;5053534;28;20057;-70
2021/09/30 15:45:15;;;;;;;2.25;0.57;;;18.30;99.90;;;;;;5053829;28;20029;-69
2021/09/30 15:47:42;;;;;;;1.20;0.50;;;18.30;99.90;;;;;;5052777;28;20029;-71
2021/09/30 15:50:08;;;;;;;1.70;0.60;;;18.40;99.90;;;;;;5052972;28;20591;-69
2021/09/30 15:52:36;;;;;;;1.30;0.50;;;18.30;99.90;;;;;;5052604;28;20036;-63
2021/09/30 15:55:02;;;;;;;1.15;0.47;;;18.30;99.90;;;;;;5053102;28;20029;-63